createdAt,value
2023-03-22T00:00:57.442Z,100211.42
2023-03-22T00:06:00.228Z,100208.07
2023-03-22T00:11:03.512Z,100202.98
2023-03-22T00:16:07.379Z,100199.95
2023-03-22T00:21:16.108Z,100188.95
2023-03-22T00:26:19.081Z,100183.45
2023-03-22T00:31:21.862Z,100177.59
2023-03-22T00:36:24.714Z,100177.33
2023-03-22T00:41:28.797Z,100179.20
2023-03-22T00:46:31.670Z,100183.63
2023-03-22T00:51:36.453Z,100174.67
2023-03-22T00:56:39.283Z,100168.84
2023-03-22T01:01:42.955Z,100161.45
2023-03-22T01:06:47.156Z,100168.86
2023-03-22T01:11:49.915Z,100162.07
2023-03-22T01:16:57.690Z,100148.11
2023-03-22T01:22:01.231Z,100139.10
2023-03-22T01:27:04.018Z,100131.45
2023-03-22T01:32:06.832Z,100126.64
2023-03-22T01:37:09.619Z,100119.45
2023-03-22T01:42:17.307Z,100112.11
2023-03-22T01:47:23.619Z,100110.31
2023-03-22T01:52:26.615Z,100099.52
2023-03-22T01:57:29.720Z,100087.81
2023-03-22T02:02:32.751Z,100082.92
2023-03-22T02:07:39.229Z,100079.89
2023-03-22T02:13:15.484Z,100072.85
2023-03-22T02:18:42.870Z,100066.34
2023-03-22T02:24:04.334Z,100061.49
2023-03-22T02:29:30.201Z,100060.70
2023-03-22T02:35:00.798Z,100054.40
2023-03-22T02:40:40.292Z,100047.69
2023-03-22T02:46:01.803Z,100049.13
2023-03-22T02:51:15.505Z,100051.05
2023-03-22T02:56:41.593Z,100055.82
2023-03-22T03:01:50.486Z,100055.13
2023-03-22T03:07:00.486Z,100053.14
2023-03-22T03:12:13.653Z,100053.17
2023-03-22T03:17:57.643Z,100047.23
2023-03-22T03:23:19.971Z,100038.52
2023-03-22T03:28:38.568Z,100037.80
2023-03-22T03:33:52.012Z,100034.45
2023-03-22T03:38:58.224Z,100038.53
2023-03-22T03:44:02.405Z,100042.54
2023-03-22T03:49:07.654Z,100034.63
2023-03-22T03:54:10.499Z,100043.65
2023-03-22T03:59:16.063Z,100044.54
2023-03-22T04:04:29.526Z,100043.84
2023-03-22T04:09:35.766Z,100040.15
2023-03-22T04:14:39.454Z,100033.84
2023-03-22T04:19:44.757Z,100033.16
2023-03-22T04:24:50.243Z,100033.08
2023-03-22T04:29:54.690Z,100032.20
2023-03-22T04:34:58.989Z,100026.89
2023-03-22T04:40:02.031Z,100029.05
2023-03-22T04:45:05.337Z,100023.36
2023-03-22T04:50:09.037Z,100020.05
2023-03-22T04:55:11.777Z,100015.69
2023-03-22T05:00:15.718Z,100013.68
2023-03-22T05:05:18.900Z,100011.62
2023-03-22T05:10:21.740Z,100006.88
2023-03-22T05:15:24.558Z,100003.77
2023-03-22T05:20:27.835Z,100003.47
2023-03-22T05:25:30.682Z,99997.44
2023-03-22T05:30:33.836Z,99989.55
2023-03-22T05:35:39.141Z,99983.77
2023-03-22T05:40:43.137Z,99980.70
2023-03-22T05:45:48.206Z,99980.02
2023-03-22T05:50:51.023Z,99972.27
2023-03-22T05:55:57.720Z,99973.20
2023-03-22T06:01:13.270Z,99976.20
2023-03-22T06:06:16.254Z,99980.00
2023-03-22T06:11:19.917Z,99969.69
2023-03-22T06:16:22.681Z,99965.86
2023-03-22T06:21:25.910Z,99967.90
2023-03-22T06:26:28.822Z,99968.05
2023-03-22T06:31:31.617Z,99969.64
2023-03-22T06:36:34.352Z,99961.75
2023-03-22T06:41:37.769Z,99963.30
2023-03-22T06:46:40.576Z,99955.50
2023-03-22T06:51:43.889Z,99949.72
2023-03-22T06:56:47.041Z,99948.72
2023-03-22T07:02:02.737Z,99948.66
2023-03-22T07:07:08.597Z,99947.17
2023-03-22T07:12:44.497Z,99951.59
2023-03-22T07:18:22.956Z,99955.02
2023-03-22T07:23:42.950Z,99949.27
2023-03-22T07:28:58.348Z,99946.16
2023-03-22T07:34:11.560Z,99935.41
2023-03-22T07:39:14.591Z,99929.84
2023-03-22T07:44:18.612Z,99924.14
2023-03-22T07:49:27.286Z,99917.95
2023-03-22T07:54:34.113Z,99923.20
2023-03-22T07:59:39.881Z,99927.19
2023-03-22T08:04:42.935Z,99924.84
2023-03-22T08:10:11.957Z,99916.84
2023-03-22T08:22:26.036Z,99910.89
2023-03-22T08:27:28.916Z,99906.20
2023-03-22T08:32:33.643Z,99905.29
2023-03-22T08:37:36.488Z,99908.13
2023-03-22T08:42:39.506Z,99903.16
2023-03-22T08:47:44.411Z,99905.61
2023-03-22T08:52:47.204Z,99907.04
2023-03-22T08:57:50.524Z,99904.49
2023-03-22T09:02:53.455Z,99902.32
2023-03-22T09:08:04.963Z,99906.09
2023-03-22T09:13:10.363Z,99906.45
2023-03-22T09:18:14.581Z,99902.11
2023-03-22T09:23:17.502Z,99903.61
2023-03-22T09:28:20.379Z,99901.16
2023-03-22T09:33:25.351Z,99894.45
2023-03-22T09:38:28.227Z,99894.61
2023-03-22T09:43:45.882Z,99894.39
2023-03-22T09:48:50.875Z,99890.90
2023-03-22T09:53:54.132Z,99889.52
2023-03-22T09:59:23.104Z,99879.09
2023-03-22T10:05:03.458Z,99876.14
2023-03-22T10:10:20.906Z,99868.88
2023-03-22T10:15:49.221Z,99873.36
2023-03-22T10:21:00.118Z,99869.29
2023-03-22T10:26:05.034Z,99865.27
2023-03-22T10:31:15.854Z,99866.95
2023-03-22T10:36:45.845Z,99869.25
2023-03-22T10:41:51.275Z,99877.16
2023-03-22T10:46:57.904Z,99877.39
2023-03-22T10:52:49.735Z,99874.73
2023-03-22T10:58:14.803Z,99870.36
2023-03-22T11:03:35.331Z,99859.84
2023-03-22T11:08:51.141Z,99857.05
2023-03-22T11:14:00.210Z,99847.69
2023-03-22T11:19:03.583Z,99857.42
2023-03-22T11:24:08.263Z,99852.56
2023-03-22T11:29:19.008Z,99853.10
2023-03-22T11:34:24.490Z,99852.52
2023-03-22T11:39:28.938Z,99849.30
2023-03-22T11:44:36.667Z,99841.80
2023-03-22T11:49:52.060Z,99841.52
2023-03-22T11:55:04.132Z,99841.98
2023-03-22T12:00:26.741Z,99842.34
2023-03-22T12:05:37.280Z,99836.58
2023-03-22T12:10:43.994Z,99836.13
2023-03-22T12:15:56.616Z,99834.52
2023-03-22T12:21:01.627Z,99827.83
2023-03-22T12:26:08.514Z,99820.06
2023-03-22T12:31:21.802Z,99806.15
2023-03-22T12:36:34.973Z,99800.99
2023-03-22T12:41:42.636Z,99803.02
2023-03-22T12:46:52.821Z,99800.39
2023-03-22T12:52:06.636Z,99798.52
2023-03-22T12:57:19.430Z,99798.79
2023-03-22T13:02:33.071Z,99793.91
2023-03-22T13:07:48.291Z,99798.71
2023-03-22T13:13:16.443Z,99791.34
2023-03-22T13:18:53.303Z,99794.16
2023-03-22T13:24:15.479Z,99788.93
2023-03-22T13:29:36.668Z,99788.93
2023-03-22T13:34:46.551Z,99787.69
2023-03-22T13:39:55.151Z,99787.54
2023-03-22T13:45:04.831Z,99784.05
2023-03-22T13:50:25.565Z,99781.17
2023-03-22T13:55:46.160Z,99774.56
2023-03-22T14:00:56.156Z,99768.41
2023-03-22T14:06:30.342Z,99764.39
2023-03-22T14:11:44.426Z,99753.59
2023-03-22T14:17:34.152Z,99748.42
